sensor_id;sensor_type;location;lat;lon;timestamp;temperature;humidity
44559;DHT22;30270;40.238;18.256;2022-10-29T00:00:54;18.70;99.90
44559;DHT22;30270;40.238;18.256;2022-10-29T00:03:23;18.70;99.90
44559;DHT22;30270;40.238;18.256;2022-10-29T00:08:23;18.70;99.90
44559;DHT22;30270;40.238;18.256;2022-10-29T00:10:50;18.70;99.90
44559;DHT22;30270;40.238;18.256;2022-10-29T00:13:18;18.70;99.90
44559;DHT22;30270;40.238;18.256;2022-10-29T00:15:46;18.70;99.90
44559;DHT22;30270;40.238;18.256;2022-10-29T00:18:13;18.70;99.90
44559;DHT22;30270;40.238;18.256;2022-10-29T00:20:41;18.70;99.90
44559;DHT22;30270;40.238;18.256;2022-10-29T00:23:09;18.70;99.90
44559;DHT22;30270;40.238;18.256;2022-10-29T00:25:36;18.70;99.90
44559;DHT22;30270;40.238;18.256;2022-10-29T00:28:04;18.70;99.90
44559;DHT22;30270;40.238;18.256;2022-10-29T00:30:34;18.60;99.90
44559;DHT22;30270;40.238;18.256;2022-10-29T00:33:01;18.60;99.90
44559;DHT22;30270;40.238;18.256;2022-10-29T00:35:29;18.70;99.90
44559;DHT22;30270;40.238;18.256;2022-10-29T00:37:56;18.60;99.90
44559;DHT22;30270;40.238;18.256;2022-10-29T00:40:24;18.60;99.90
44559;DHT22;30270;40.238;18.256;2022-10-29T00:42:52;18.70;99.90
44559;DHT22;30270;40.238;18.256;2022-10-29T00:45:20;18.70;99.90
44559;DHT22;30270;40.238;18.256;2022-10-29T00:47:51;18.70;99.90
44559;DHT22;30270;40.238;18.256;2022-10-29T00:50:21;18.60;99.90
44559;DHT22;30270;40.238;18.256;2022-10-29T00:52:50;18.60;99.90
44559;DHT22;30270;40.238;18.256;2022-10-29T00:55:19;18.60;99.90
44559;DHT22;30270;40.238;18.256;2022-10-29T00:57:51;18.60;99.90
44559;DHT22;30270;40.238;18.256;2022-10-29T01:00:20;18.60;99.90
44559;DHT22;30270;40.238;18.256;2022-10-29T01:02:49;18.60;99.90
44559;DHT22;30270;40.238;18.256;2022-10-29T01:05:19;18.60;99.90
44559;DHT22;30270;40.238;18.256;2022-10-29T01:07:47;18.60;99.90
44559;DHT22;30270;40.238;18.256;2022-10-29T01:10:16;18.60;99.90
44559;DHT22;30270;40.238;18.256;2022-10-29T01:19:02;18.60;99.90
44559;DHT22;30270;40.238;18.256;2022-10-29T01:24:59;18.60;99.90
44559;DHT22;30270;40.238;18.256;2022-10-29T01:27:55;18.60;99.90
44559;DHT22;30270;40.238;18.256;2022-10-29T01:36:17;18.50;99.90
44559;DHT22;30270;40.238;18.256;2022-10-29T01:41:31;18.50;99.90
44559;DHT22;30270;40.238;18.256;2022-10-29T01:44:34;18.50;99.90
44559;DHT22;30270;40.238;18.256;2022-10-29T01:47:08;18.50;99.90
44559;DHT22;30270;40.238;18.256;2022-10-29T01:49:43;18.50;99.90
44559;DHT22;30270;40.238;18.256;2022-10-29T01:52:13;18.50;99.90
44559;DHT22;30270;40.238;18.256;2022-10-29T01:54:44;18.50;99.90
44559;DHT22;30270;40.238;18.256;2022-10-29T01:57:42;18.50;99.90
44559;DHT22;30270;40.238;18.256;2022-10-29T02:00:12;18.50;99.90
44559;DHT22;30270;40.238;18.256;2022-10-29T02:05:37;18.50;99.90
44559;DHT22;30270;40.238;18.256;2022-10-29T02:08:35;18.50;99.90
44559;DHT22;30270;40.238;18.256;2022-10-29T02:11:22;18.50;99.90
44559;DHT22;30270;40.238;18.256;2022-10-29T02:13:57;18.50;99.90
44559;DHT22;30270;40.238;18.256;2022-10-29T02:16:26;18.50;99.90
44559;DHT22;30270;40.238;18.256;2022-10-29T02:18:55;18.50;99.90
44559;DHT22;30270;40.238;18.256;2022-10-29T02:21:24;18.50;99.90
44559;DHT22;30270;40.238;18.256;2022-10-29T02:23:52;18.50;99.90
44559;DHT22;30270;40.238;18.256;2022-10-29T02:26:19;18.50;99.90
44559;DHT22;30270;40.238;18.256;2022-10-29T02:28:48;18.50;99.90
44559;DHT22;30270;40.238;18.256;2022-10-29T02:31:15;18.40;99.90
44559;DHT22;30270;40.238;18.256;2022-10-29T02:33:43;18.40;99.90
44559;DHT22;30270;40.238;18.256;2022-10-29T02:36:10;18.40;99.90
44559;DHT22;30270;40.238;18.256;2022-10-29T02:38:38;18.40;99.90
44559;DHT22;30270;40.238;18.256;2022-10-29T02:41:05;18.40;99.90
44559;DHT22;30270;40.238;18.256;2022-10-29T02:43:33;18.40;99.90
44559;DHT22;30270;40.238;18.256;2022-10-29T02:46:30;18.40;99.90
44559;DHT22;30270;40.238;18.256;2022-10-29T02:48:57;18.40;99.90
44559;DHT22;30270;40.238;18.256;2022-10-29T02:51:25;18.40;99.90
44559;DHT22;30270;40.238;18.256;2022-10-29T02:53:52;18.40;99.90
44559;DHT22;30270;40.238;18.256;2022-10-29T02:56:20;18.40;99.90
44559;DHT22;30270;40.238;18.256;2022-10-29T02:58:47;18.40;99.90
44559;DHT22;30270;40.238;18.256;2022-10-29T03:01:15;18.40;99.90
44559;DHT22;30270;40.238;18.256;2022-10-29T03:03:43;18.40;99.90
44559;DHT22;30270;40.238;18.256;2022-10-29T03:06:15;18.40;99.90
44559;DHT22;30270;40.238;18.256;2022-10-29T03:08:43;18.30;99.90
44559;DHT22;30270;40.238;18.256;2022-10-29T03:11:11;18.40;99.90
44559;DHT22;30270;40.238;18.256;2022-10-29T03:13:39;18.40;99.90
44559;DHT22;30270;40.238;18.256;2022-10-29T03:16:07;18.30;99.90
44559;DHT22;30270;40.238;18.256;2022-10-29T03:18:35;18.40;99.90
44559;DHT22;30270;40.238;18.256;2022-10-29T03:21:03;18.40;99.90
44559;DHT22;30270;40.238;18.256;2022-10-29T03:23:30;18.30;99.90
44559;DHT22;30270;40.238;18.256;2022-10-29T03:25:58;18.40;99.90
44559;DHT22;30270;40.238;18.256;2022-10-29T03:28:26;18.40;99.90
44559;DHT22;30270;40.238;18.256;2022-10-29T03:30:55;18.30;99.90
44559;DHT22;30270;40.238;18.256;2022-10-29T03:33:23;18.30;99.90
44559;DHT22;30270;40.238;18.256;2022-10-29T03:35:59;18.30;99.90
44559;DHT22;30270;40.238;18.256;2022-10-29T03:38:27;18.30;99.90
44559;DHT22;30270;40.238;18.256;2022-10-29T03:40:54;18.30;99.90
44559;DHT22;30270;40.238;18.256;2022-10-29T03:43:22;18.30;99.90
44559;DHT22;30270;40.238;18.256;2022-10-29T03:45:55;18.30;99.90
44559;DHT22;30270;40.238;18.256;2022-10-29T03:48:24;18.30;99.90
44559;DHT22;30270;40.238;18.256;2022-10-29T03:51:00;18.30;99.90
44559;DHT22;30270;40.238;18.256;2022-10-29T03:53:28;18.30;99.90
44559;DHT22;30270;40.238;18.256;2022-10-29T03:55:56;18.30;99.90
44559;DHT22;30270;40.238;18.256;2022-10-29T03:58:24;18.30;99.90
44559;DHT22;30270;40.238;18.256;2022-10-29T04:01:07;18.20;99.90
44559;DHT22;30270;40.238;18.256;2022-10-29T04:03:36;18.20;99.90
44559;DHT22;30270;40.238;18.256;2022-10-29T04:06:12;18.20;99.90
44559;DHT22;30270;40.238;18.256;2022-10-29T04:08:41;18.20;99.90
44559;DHT22;30270;40.238;18.256;2022-10-29T04:11:12;18.30;99.90
44559;DHT22;30270;40.238;18.256;2022-10-29T04:13:40;18.20;99.90
44559;DHT22;30270;40.238;18.256;2022-10-29T04:16:08;18.30;99.90
44559;DHT22;30270;40.238;18.256;2022-10-29T04:18:35;18.30;99.90
44559;DHT22;30270;40.238;18.256;2022-10-29T04:21:03;18.30;99.90
44559;DHT22;30270;40.238;18.256;2022-10-29T04:23:51;18.30;99.90
44559;DHT22;30270;40.238;18.256;2022-10-29T04:26:38;18.30;99.90
44559;DHT22;30270;40.238;18.256;2022-10-29T04:29:28;18.30;99.90
44559;DHT22;30270;40.238;18.256;2022-10-29T04:31:55;18.30;99.90
44559;DHT22;30270;40.238;18.256;2022-10-29T04:34:23;18.30;99.90
44559;DHT22;30270;40.238;18.256;2022-10-29T04:36:51;18.30;99.90
44559;DHT22;30270;40.238;18.256;2022-10-29T04:39:19;18.30;99.90
44559;DHT22;30270;40.238;18.256;2022-10-29T04:41:48;18.30;99.90
44559;DHT22;30270;40.238;18.256;2022-10-29T04:44:16;18.30;99.90
44559;DHT22;30270;40.238;18.256;2022-10-29T04:46:43;18.30;99.90
44559;DHT22;30270;40.238;18.256;2022-10-29T04:49:11;18.20;99.90
44559;DHT22;30270;40.238;18.256;2022-10-29T04:51:38;18.20;99.90
44559;DHT22;30270;40.238;18.256;2022-10-29T04:54:06;18.20;99.90
44559;DHT22;30270;40.238;18.256;2022-10-29T04:56:34;18.30;99.90
44559;DHT22;30270;40.238;18.256;2022-10-29T04:59:01;18.20;99.90
44559;DHT22;30270;40.238;18.256;2022-10-29T05:01:29;18.20;99.90
44559;DHT22;30270;40.238;18.256;2022-10-29T05:03:56;18.20;99.90
44559;DHT22;30270;40.238;18.256;2022-10-29T05:06:24;18.20;99.90
44559;DHT22;30270;40.238;18.256;2022-10-29T05:08:52;18.20;99.90
44559;DHT22;30270;40.238;18.256;2022-10-29T05:11:20;18.20;99.90
44559;DHT22;30270;40.238;18.256;2022-10-29T05:13:48;18.20;99.90
44559;DHT22;30270;40.238;18.256;2022-10-29T05:16:15;18.20;99.90
44559;DHT22;30270;40.238;18.256;2022-10-29T05:18:43;18.20;99.90
44559;DHT22;30270;40.238;18.256;2022-10-29T05:21:10;18.30;99.90
44559;DHT22;30270;40.238;18.256;2022-10-29T05:23:38;18.20;99.90
44559;DHT22;30270;40.238;18.256;2022-10-29T05:26:06;18.20;99.90
44559;DHT22;30270;40.238;18.256;2022-10-29T05:28:33;18.20;99.90
44559;DHT22;30270;40.238;18.256;2022-10-29T05:31:01;18.30;99.90
44559;DHT22;30270;40.238;18.256;2022-10-29T05:33:28;18.30;99.90
44559;DHT22;30270;40.238;18.256;2022-10-29T05:35:58;18.40;99.90
44559;DHT22;30270;40.238;18.256;2022-10-29T05:38:26;18.50;99.90
44559;DHT22;30270;40.238;18.256;2022-10-29T05:40:57;18.50;99.90
44559;DHT22;30270;40.238;18.256;2022-10-29T05:43:25;18.60;99.90
44559;DHT22;30270;40.238;18.256;2022-10-29T05:45:53;18.70;99.90
44559;DHT22;30270;40.238;18.256;2022-10-29T05:48:20;18.80;99.90
44559;DHT22;30270;40.238;18.256;2022-10-29T05:50:48;18.90;99.90
44559;DHT22;30270;40.238;18.256;2022-10-29T05:53:15;19.00;99.90
44559;DHT22;30270;40.238;18.256;2022-10-29T05:55:43;19.20;99.90
44559;DHT22;30270;40.238;18.256;2022-10-29T05:58:12;19.40;99.90
44559;DHT22;30270;40.238;18.256;2022-10-29T06:00:42;19.60;99.90
44559;DHT22;30270;40.238;18.256;2022-10-29T06:03:18;19.70;99.90
44559;DHT22;30270;40.238;18.256;2022-10-29T06:05:47;20.00;99.90
44559;DHT22;30270;40.238;18.256;2022-10-29T06:08:15;20.20;99.90
44559;DHT22;30270;40.238;18.256;2022-10-29T06:10:44;20.60;99.90
44559;DHT22;30270;40.238;18.256;2022-10-29T06:13:13;21.00;99.90
44559;DHT22;30270;40.238;18.256;2022-10-29T06:15:42;21.30;99.90
44559;DHT22;30270;40.238;18.256;2022-10-29T06:18:09;21.60;99.90
44559;DHT22;30270;40.238;18.256;2022-10-29T06:20:38;21.80;99.90
44559;DHT22;30270;40.238;18.256;2022-10-29T06:23:05;21.80;99.90
44559;DHT22;30270;40.238;18.256;2022-10-29T06:25:33;21.80;99.90
44559;DHT22;30270;40.238;18.256;2022-10-29T06:30:30;21.50;99.90
44559;DHT22;30270;40.238;18.256;2022-10-29T06:32:59;21.80;99.90
44559;DHT22;30270;40.238;18.256;2022-10-29T06:35:27;22.20;99.90
44559;DHT22;30270;40.238;18.256;2022-10-29T06:37:55;22.60;99.90
44559;DHT22;30270;40.238;18.256;2022-10-29T06:40:22;22.90;99.90
44559;DHT22;30270;40.238;18.256;2022-10-29T06:43:00;23.00;99.90
44559;DHT22;30270;40.238;18.256;2022-10-29T06:45:29;23.10;99.90
44559;DHT22;30270;40.238;18.256;2022-10-29T06:47:57;23.00;99.90
44559;DHT22;30270;40.238;18.256;2022-10-29T06:50:25;23.00;99.90
44559;DHT22;30270;40.238;18.256;2022-10-29T06:53:04;23.00;99.90
44559;DHT22;30270;40.238;18.256;2022-10-29T06:55:33;23.10;99.90
44559;DHT22;30270;40.238;18.256;2022-10-29T06:58:04;23.30;99.90
44559;DHT22;30270;40.238;18.256;2022-10-29T07:00:32;23.30;99.90
44559;DHT22;30270;40.238;18.256;2022-10-29T07:03:01;23.20;99.90
44559;DHT22;30270;40.238;18.256;2022-10-29T07:05:32;23.10;99.90
44559;DHT22;30270;40.238;18.256;2022-10-29T07:08:00;22.80;99.90
44559;DHT22;30270;40.238;18.256;2022-10-29T07:10:30;22.70;99.90
44559;DHT22;30270;40.238;18.256;2022-10-29T07:12:58;22.80;99.90
44559;DHT22;30270;40.238;18.256;2022-10-29T07:15:26;22.90;99.90
44559;DHT22;30270;40.238;18.256;2022-10-29T07:18:06;23.10;99.90
44559;DHT22;30270;40.238;18.256;2022-10-29T07:20:38;23.40;99.90
44559;DHT22;30270;40.238;18.256;2022-10-29T07:23:07;23.60;99.90
44559;DHT22;30270;40.238;18.256;2022-10-29T07:25:36;23.50;99.90
44559;DHT22;30270;40.238;18.256;2022-10-29T07:28:09;23.00;99.90
44559;DHT22;30270;40.238;18.256;2022-10-29T07:30:37;22.90;99.90
44559;DHT22;30270;40.238;18.256;2022-10-29T07:33:05;23.00;99.90
44559;DHT22;30270;40.238;18.256;2022-10-29T07:35:33;23.10;99.90
44559;DHT22;30270;40.238;18.256;2022-10-29T07:38:03;23.50;99.90
44559;DHT22;30270;40.238;18.256;2022-10-29T07:40:31;23.70;99.90
44559;DHT22;30270;40.238;18.256;2022-10-29T07:42:58;23.80;99.90
44559;DHT22;30270;40.238;18.256;2022-10-29T07:45:26;24.00;99.90
44559;DHT22;30270;40.238;18.256;2022-10-29T07:47:59;24.10;99.90
44559;DHT22;30270;40.238;18.256;2022-10-29T07:50:29;24.20;99.90
44559;DHT22;30270;40.238;18.256;2022-10-29T07:53:01;24.20;99.90
44559;DHT22;30270;40.238;18.256;2022-10-29T07:55:30;24.10;99.90
44559;DHT22;30270;40.238;18.256;2022-10-29T07:57:59;23.90;99.90
44559;DHT22;30270;40.238;18.256;2022-10-29T08:00:34;23.60;99.90
44559;DHT22;30270;40.238;18.256;2022-10-29T08:03:02;23.30;99.90
44559;DHT22;30270;40.238;18.256;2022-10-29T08:05:30;23.10;99.90
44559;DHT22;30270;40.238;18.256;2022-10-29T08:07:58;23.20;99.90
44559;DHT22;30270;40.238;18.256;2022-10-29T08:10:27;23.40;99.90
44559;DHT22;30270;40.238;18.256;2022-10-29T08:12:59;23.60;99.90
44559;DHT22;30270;40.238;18.256;2022-10-29T08:15:29;23.80;99.90
44559;DHT22;30270;40.238;18.256;2022-10-29T08:17:57;24.10;99.90
44559;DHT22;30270;40.238;18.256;2022-10-29T08:20:26;24.30;99.90
44559;DHT22;30270;40.238;18.256;2022-10-29T08:22:57;24.50;99.90
44559;DHT22;30270;40.238;18.256;2022-10-29T08:25:26;24.80;99.90
44559;DHT22;30270;40.238;18.256;2022-10-29T08:28:03;25.10;99.90
44559;DHT22;30270;40.238;18.256;2022-10-29T08:30:31;25.20;99.90
44559;DHT22;30270;40.238;18.256;2022-10-29T08:32:59;25.40;99.90
44559;DHT22;30270;40.238;18.256;2022-10-29T08:35:28;25.40;99.90
44559;DHT22;30270;40.238;18.256;2022-10-29T08:37:56;25.50;99.90
44559;DHT22;30270;40.238;18.256;2022-10-29T08:45:48;25.60;99.90
44559;DHT22;30270;40.238;18.256;2022-10-29T08:51:12;25.40;99.90
44559;DHT22;30270;40.238;18.256;2022-10-29T08:53:53;25.40;99.90
44559;DHT22;30270;40.238;18.256;2022-10-29T08:57:05;25.60;99.90
44559;DHT22;30270;40.238;18.256;2022-10-29T08:59:39;25.60;99.90
44559;DHT22;30270;40.238;18.256;2022-10-29T09:02:17;25.50;99.90
44559;DHT22;30270;40.238;18.256;2022-10-29T09:04:45;25.20;99.90
44559;DHT22;30270;40.238;18.256;2022-10-29T09:13:30;25.10;99.90
44559;DHT22;30270;40.238;18.256;2022-10-29T09:23:44;25.40;99.90
44559;DHT22;30270;40.238;18.256;2022-10-29T09:32:10;24.90;99.90
44559;DHT22;30270;40.238;18.256;2022-10-29T09:35:20;25.10;99.90
44559;DHT22;30270;40.238;18.256;2022-10-29T09:37:53;25.40;99.90
44559;DHT22;30270;40.238;18.256;2022-10-29T09:40:29;25.60;99.90
44559;DHT22;30270;40.238;18.256;2022-10-29T09:43:00;25.50;99.90
44559;DHT22;30270;40.238;18.256;2022-10-29T09:48:33;25.10;99.90
44559;DHT22;30270;40.238;18.256;2022-10-29T09:53:39;25.30;99.90
44559;DHT22;30270;40.238;18.256;2022-10-29T09:56:08;25.50;99.90
44559;DHT22;30270;40.238;18.256;2022-10-29T09:58:41;25.50;99.90
44559;DHT22;30270;40.238;18.256;2022-10-29T10:01:11;25.30;99.90
44559;DHT22;30270;40.238;18.256;2022-10-29T10:03:44;25.30;99.90
44559;DHT22;30270;40.238;18.256;2022-10-29T10:06:15;25.30;99.90
44559;DHT22;30270;40.238;18.256;2022-10-29T10:09:03;25.20;99.90
44559;DHT22;30270;40.238;18.256;2022-10-29T10:11:38;25.30;99.90
44559;DHT22;30270;40.238;18.256;2022-10-29T10:14:20;25.10;99.90
44559;DHT22;30270;40.238;18.256;2022-10-29T10:16:59;25.30;99.90
44559;DHT22;30270;40.238;18.256;2022-10-29T10:19:31;25.50;99.90
44559;DHT22;30270;40.238;18.256;2022-10-29T10:22:01;25.50;99.90
44559;DHT22;30270;40.238;18.256;2022-10-29T10:24:31;25.60;99.90
44559;DHT22;30270;40.238;18.256;2022-10-29T10:27:00;25.70;99.90
44559;DHT22;30270;40.238;18.256;2022-10-29T10:29:28;25.70;99.90
44559;DHT22;30270;40.238;18.256;2022-10-29T10:34:41;25.40;99.90
44559;DHT22;30270;40.238;18.256;2022-10-29T10:42:29;25.40;99.90
44559;DHT22;30270;40.238;18.256;2022-10-29T10:45:23;25.50;99.90
44559;DHT22;30270;40.238;18.256;2022-10-29T10:47:54;25.50;99.90
44559;DHT22;30270;40.238;18.256;2022-10-29T10:50:32;25.70;99.90
44559;DHT22;30270;40.238;18.256;2022-10-29T10:53:18;25.50;99.90
44559;DHT22;30270;40.238;18.256;2022-10-29T10:55:50;25.60;99.90
44559;DHT22;30270;40.238;18.256;2022-10-29T10:58:39;25.50;99.70
44559;DHT22;30270;40.238;18.256;2022-10-29T11:01:13;25.60;98.80
44559;DHT22;30270;40.238;18.256;2022-10-29T11:06:38;25.50;99.90
44559;DHT22;30270;40.238;18.256;2022-10-29T11:09:36;25.40;99.90
44559;DHT22;30270;40.238;18.256;2022-10-29T11:15:37;25.20;99.80
44559;DHT22;30270;40.238;18.256;2022-10-29T11:17:58;25.00;99.20
44559;DHT22;30270;40.238;18.256;2022-10-29T11:20:31;25.10;98.80
44559;DHT22;30270;40.238;18.256;2022-10-29T11:26:08;25.20;98.10
44559;DHT22;30270;40.238;18.256;2022-10-29T11:28:44;25.20;98.30
44559;DHT22;30270;40.238;18.256;2022-10-29T11:31:16;25.30;98.20
44559;DHT22;30270;40.238;18.256;2022-10-29T11:36:24;25.40;98.70
44559;DHT22;30270;40.238;18.256;2022-10-29T11:39:07;25.20;99.00
44559;DHT22;30270;40.238;18.256;2022-10-29T11:42:07;25.00;99.50
44559;DHT22;30270;40.238;18.256;2022-10-29T11:44:37;24.90;99.90
44559;DHT22;30270;40.238;18.256;2022-10-29T11:50:25;24.60;99.90
44559;DHT22;30270;40.238;18.256;2022-10-29T11:53:16;24.70;99.90
44559;DHT22;30270;40.238;18.256;2022-10-29T11:59:01;24.70;99.90
44559;DHT22;30270;40.238;18.256;2022-10-29T12:04:14;24.30;99.90
44559;DHT22;30270;40.238;18.256;2022-10-29T12:09:34;24.30;99.90
44559;DHT22;30270;40.238;18.256;2022-10-29T12:15:29;24.20;99.90
44559;DHT22;30270;40.238;18.256;2022-10-29T12:25:50;24.30;99.90
44559;DHT22;30270;40.238;18.256;2022-10-29T12:31:15;24.20;99.90
44559;DHT22;30270;40.238;18.256;2022-10-29T12:34:02;24.20;99.90
44559;DHT22;30270;40.238;18.256;2022-10-29T12:36:45;24.30;99.90
44559;DHT22;30270;40.238;18.256;2022-10-29T12:39:37;24.20;99.90
44559;DHT22;30270;40.238;18.256;2022-10-29T12:42:25;24.30;99.90
44559;DHT22;30270;40.238;18.256;2022-10-29T12:56:17;24.20;99.90
44559;DHT22;30270;40.238;18.256;2022-10-29T13:04:09;24.00;99.90
44559;DHT22;30270;40.238;18.256;2022-10-29T13:07:01;23.80;99.90
44559;DHT22;30270;40.238;18.256;2022-10-29T13:09:33;23.80;99.90
44559;DHT22;30270;40.238;18.256;2022-10-29T13:12:09;23.70;99.90
44559;DHT22;30270;40.238;18.256;2022-10-29T13:14:46;23.60;99.90
44559;DHT22;30270;40.238;18.256;2022-10-29T13:17:35;23.50;99.90
44559;DHT22;30270;40.238;18.256;2022-10-29T13:20:18;23.40;99.90
44559;DHT22;30270;40.238;18.256;2022-10-29T13:30:37;23.20;99.90
44559;DHT22;30270;40.238;18.256;2022-10-29T13:41:23;22.90;99.90
44559;DHT22;30270;40.238;18.256;2022-10-29T13:46:56;22.70;99.90
44559;DHT22;30270;40.238;18.256;2022-10-29T13:49:48;22.70;99.90
44559;DHT22;30270;40.238;18.256;2022-10-29T13:52:20;22.70;99.90
44559;DHT22;30270;40.238;18.256;2022-10-29T13:55:00;22.70;99.90
44559;DHT22;30270;40.238;18.256;2022-10-29T13:57:41;22.70;99.90
44559;DHT22;30270;40.238;18.256;2022-10-29T14:05:41;22.50;99.90
44559;DHT22;30270;40.238;18.256;2022-10-29T14:18:35;22.30;99.90
44559;DHT22;30270;40.238;18.256;2022-10-29T14:21:06;22.20;99.90
44559;DHT22;30270;40.238;18.256;2022-10-29T14:23:38;22.10;99.90
44559;DHT22;30270;40.238;18.256;2022-10-29T14:26:15;22.20;99.90
44559;DHT22;30270;40.238;18.256;2022-10-29T14:28:44;22.10;99.90
44559;DHT22;30270;40.238;18.256;2022-10-29T14:31:14;22.20;99.90
44559;DHT22;30270;40.238;18.256;2022-10-29T14:33:54;22.10;99.90
44559;DHT22;30270;40.238;18.256;2022-10-29T14:39:23;22.10;99.90
44559;DHT22;30270;40.238;18.256;2022-10-29T14:41:55;22.00;99.90
44559;DHT22;30270;40.238;18.256;2022-10-29T14:44:29;22.00;99.90
44559;DHT22;30270;40.238;18.256;2022-10-29T14:47:07;21.90;99.90
44559;DHT22;30270;40.238;18.256;2022-10-29T14:49:44;21.80;99.90
44559;DHT22;30270;40.238;18.256;2022-10-29T14:52:29;21.70;99.90
44559;DHT22;30270;40.238;18.256;2022-10-29T14:55:06;21.70;99.90
44559;DHT22;30270;40.238;18.256;2022-10-29T14:57:41;21.70;99.90
44559;DHT22;30270;40.238;18.256;2022-10-29T15:00:24;21.70;99.90
44559;DHT22;30270;40.238;18.256;2022-10-29T15:02:54;21.60;99.90
44559;DHT22;30270;40.238;18.256;2022-10-29T15:05:30;21.50;99.90
44559;DHT22;30270;40.238;18.256;2022-10-29T15:10:48;21.40;99.90
44559;DHT22;30270;40.238;18.256;2022-10-29T15:16:07;21.30;99.90
44559;DHT22;30270;40.238;18.256;2022-10-29T15:18:36;21.30;99.90
44559;DHT22;30270;40.238;18.256;2022-10-29T15:21:05;21.30;99.90
44559;DHT22;30270;40.238;18.256;2022-10-29T15:23:35;21.20;99.90
44559;DHT22;30270;40.238;18.256;2022-10-29T15:26:16;21.20;99.90
44559;DHT22;30270;40.238;18.256;2022-10-29T15:28:53;21.10;99.90
44559;DHT22;30270;40.238;18.256;2022-10-29T15:31:40;21.10;99.90
44559;DHT22;30270;40.238;18.256;2022-10-29T15:34:14;21.10;99.90
44559;DHT22;30270;40.238;18.256;2022-10-29T15:36:54;21.10;99.90
44559;DHT22;30270;40.238;18.256;2022-10-29T15:39:27;21.10;99.90
44559;DHT22;30270;40.238;18.256;2022-10-29T15:41:59;21.10;99.90
44559;DHT22;30270;40.238;18.256;2022-10-29T15:44:33;21.00;99.90
44559;DHT22;30270;40.238;18.256;2022-10-29T15:47:48;21.00;99.90
44559;DHT22;30270;40.238;18.256;2022-10-29T15:49:50;20.90;99.90
44559;DHT22;30270;40.238;18.256;2022-10-29T15:52:18;20.90;99.90
44559;DHT22;30270;40.238;18.256;2022-10-29T15:54:46;20.80;99.90
44559;DHT22;30270;40.238;18.256;2022-10-29T15:57:15;20.70;99.90
44559;DHT22;30270;40.238;18.256;2022-10-29T15:59:44;20.70;99.90
44559;DHT22;30270;40.238;18.256;2022-10-29T16:02:14;20.60;99.90
44559;DHT22;30270;40.238;18.256;2022-10-29T16:04:44;20.60;99.90
44559;DHT22;30270;40.238;18.256;2022-10-29T16:07:11;20.60;99.90
44559;DHT22;30270;40.238;18.256;2022-10-29T16:09:48;20.60;99.90
44559;DHT22;30270;40.238;18.256;2022-10-29T16:12:17;20.60;99.90
44559;DHT22;30270;40.238;18.256;2022-10-29T16:14:45;20.60;99.90
44559;DHT22;30270;40.238;18.256;2022-10-29T16:17:14;20.50;99.90
44559;DHT22;30270;40.238;18.256;2022-10-29T16:19:42;20.50;99.90
44559;DHT22;30270;40.238;18.256;2022-10-29T16:22:13;20.40;99.90
44559;DHT22;30270;40.238;18.256;2022-10-29T16:24:42;20.40;99.90
44559;DHT22;30270;40.238;18.256;2022-10-29T16:27:15;20.40;99.90
44559;DHT22;30270;40.238;18.256;2022-10-29T16:29:48;20.40;99.90
44559;DHT22;30270;40.238;18.256;2022-10-29T16:32:21;20.40;99.90
44559;DHT22;30270;40.238;18.256;2022-10-29T16:34:50;20.40;99.90
44559;DHT22;30270;40.238;18.256;2022-10-29T16:37:19;20.30;99.90
44559;DHT22;30270;40.238;18.256;2022-10-29T16:39:47;20.30;99.90
44559;DHT22;30270;40.238;18.256;2022-10-29T16:42:30;20.30;99.90
44559;DHT22;30270;40.238;18.256;2022-10-29T16:44:59;20.20;99.90
44559;DHT22;30270;40.238;18.256;2022-10-29T16:47:27;20.20;99.90
44559;DHT22;30270;40.238;18.256;2022-10-29T16:49:55;20.20;99.90
44559;DHT22;30270;40.238;18.256;2022-10-29T16:52:23;20.20;99.90
44559;DHT22;30270;40.238;18.256;2022-10-29T16:54:52;20.20;99.90
44559;DHT22;30270;40.238;18.256;2022-10-29T16:57:20;20.10;99.90
44559;DHT22;30270;40.238;18.256;2022-10-29T16:59:48;20.10;99.90
44559;DHT22;30270;40.238;18.256;2022-10-29T17:02:16;20.10;99.90
44559;DHT22;30270;40.238;18.256;2022-10-29T17:04:44;20.10;99.90
44559;DHT22;30270;40.238;18.256;2022-10-29T17:07:12;20.10;99.90
44559;DHT22;30270;40.238;18.256;2022-10-29T17:09:40;20.10;99.90
44559;DHT22;30270;40.238;18.256;2022-10-29T17:12:08;20.10;99.90
44559;DHT22;30270;40.238;18.256;2022-10-29T17:14:36;20.10;99.90
44559;DHT22;30270;40.238;18.256;2022-10-29T17:17:04;20.00;99.90
44559;DHT22;30270;40.238;18.256;2022-10-29T17:19:32;20.10;99.90
44559;DHT22;30270;40.238;18.256;2022-10-29T17:22:00;20.10;99.90
44559;DHT22;30270;40.238;18.256;2022-10-29T17:24:30;20.00;99.90
44559;DHT22;30270;40.238;18.256;2022-10-29T17:26:58;20.00;99.90
44559;DHT22;30270;40.238;18.256;2022-10-29T17:29:27;20.00;99.90
44559;DHT22;30270;40.238;18.256;2022-10-29T17:31:57;20.00;99.90
44559;DHT22;30270;40.238;18.256;2022-10-29T17:34:25;19.90;99.90
44559;DHT22;30270;40.238;18.256;2022-10-29T17:36:53;19.90;99.90
44559;DHT22;30270;40.238;18.256;2022-10-29T17:39:21;19.90;99.90
44559;DHT22;30270;40.238;18.256;2022-10-29T17:41:49;19.90;99.90
44559;DHT22;30270;40.238;18.256;2022-10-29T17:44:18;19.90;99.90
44559;DHT22;30270;40.238;18.256;2022-10-29T17:46:47;19.90;99.90
44559;DHT22;30270;40.238;18.256;2022-10-29T17:49:14;19.90;99.90
44559;DHT22;30270;40.238;18.256;2022-10-29T17:51:42;19.80;99.90
44559;DHT22;30270;40.238;18.256;2022-10-29T17:54:14;19.80;99.90
44559;DHT22;30270;40.238;18.256;2022-10-29T17:56:42;19.80;99.90
44559;DHT22;30270;40.238;18.256;2022-10-29T17:59:10;19.80;99.90
44559;DHT22;30270;40.238;18.256;2022-10-29T18:01:37;19.80;99.90
44559;DHT22;30270;40.238;18.256;2022-10-29T18:04:05;19.80;99.90
44559;DHT22;30270;40.238;18.256;2022-10-29T18:06:33;19.70;99.90
44559;DHT22;30270;40.238;18.256;2022-10-29T18:09:01;19.70;99.90
44559;DHT22;30270;40.238;18.256;2022-10-29T18:11:30;19.70;99.90
44559;DHT22;30270;40.238;18.256;2022-10-29T18:13:59;19.60;99.90
44559;DHT22;30270;40.238;18.256;2022-10-29T18:16:28;19.60;99.90
44559;DHT22;30270;40.238;18.256;2022-10-29T18:18:57;19.60;99.90
44559;DHT22;30270;40.238;18.256;2022-10-29T18:21:29;19.50;99.90
44559;DHT22;30270;40.238;18.256;2022-10-29T18:23:57;19.60;99.90
44559;DHT22;30270;40.238;18.256;2022-10-29T18:26:28;19.50;99.90
44559;DHT22;30270;40.238;18.256;2022-10-29T18:29:00;19.60;99.90